Terminal Aerodrome Forecast
Issued by NWS

Home | Current Version | Previous Version | Text Only | Print | Product List | Glossary On
Versions: 1 2 3 4 5 6 7 8 9 10 11 12 13 14 15 16 17 18 19 20 21 22 23 24 25
000
FTUS41 KGYX 202327
TAFMHT
TAF
KMHT 202327Z 2100/2124 VRB03KT P6SM FEW090 FEW250 WS015/25040KT
     FM210900 22005KT 2SM BR SCT025 WS015/25040KT
     FM211400 21008KT P6SM SCT050 WS020/26040KT=

USA.gov is the U.S. government's official web portal to all federal, state and local government web resources and services.